Time;durP1;ratioP1;P1;durP2;ratioP2;P2;SDS_P1;SDS_P2;PMS_P1;PMS_P2;Temp;Humidity;BMP_temperature;BMP_pressure;BME280_temperature;BME280_humidity;BME280_pressure;Samples;Min_cycle;Max_cycle;Signal;HPM_P1;HPM_P2
2020/12/01 00:00:51;;;;;;;101.90;55.83;;;;;;;-3.60;79.51;99339.50;1726307;83;21040;-78
2020/12/01 00:03:19;;;;;;;102.62;55.40;;;;;;;-3.62;79.44;99337.32;1770385;80;20997;-78
2020/12/01 00:05:47;;;;;;;99.40;53.05;;;;;;;-3.67;79.45;99338.62;1697350;83;21360;-78
2020/12/01 00:08:18;;;;;;;99.37;52.48;;;;;;;-3.69;79.44;99349.11;1770411;80;21008;-77
2020/12/01 00:10:46;;;;;;;95.70;51.88;;;;;;;-3.72;79.43;99338.59;1697122;84;20988;-78
2020/12/01 00:13:13;;;;;;;90.22;49.03;;;;;;;-3.75;79.20;99342.94;1770477;81;21000;-77
2020/12/01 00:15:41;;;;;;;89.72;49.27;;;;;;;-3.79;79.12;99340.75;1770352;81;21000;-78
2020/12/01 00:18:09;;;;;;;84.28;45.20;;;;;;;-3.84;79.05;99335.92;1697130;84;21494;-77
2020/12/01 00:20:37;;;;;;;78.67;43.05;;;;;;;-3.86;79.14;99329.36;1770423;80;21000;-77
2020/12/01 00:23:06;;;;;;;71.75;39.63;;;;;;;-3.89;78.98;99316.66;1697151;84;20964;-77
2020/12/01 00:25:34;;;;;;;72.53;39.63;;;;;;;-3.92;78.79;99327.16;1769751;81;21024;-77
2020/12/01 00:28:02;;;;;;;70.55;39.08;;;;;;;-3.94;78.62;99323.63;1697227;84;21008;-79
2020/12/01 00:30:32;;;;;;;65.87;36.68;;;;;;;-3.98;78.61;99328.44;1770391;80;21204;-78
2020/12/01 00:33:01;;;;;;;61.70;33.83;;;;;;;-4.03;78.60;99321.86;1770205;81;21031;-78
2020/12/01 00:35:30;;;;;;;58.05;33.70;;;;;;;-4.06;78.56;99325.33;1697079;83;21086;-78
2020/12/01 00:37:59;;;;;;;60.70;32.45;;;;;;;-4.10;78.42;99317.02;1770355;80;21033;-77
2020/12/01 00:40:27;;;;;;;56.75;33.67;;;;;;;-4.13;78.31;99320.95;1770340;81;21004;-78
2020/12/01 00:42:55;;;;;;;58.87;31.82;;;;;;;-4.15;78.26;99317.86;1697197;83;21381;-78
2020/12/01 00:45:25;;;;;;;61.55;32.25;;;;;;;-4.19;78.31;99316.98;1770356;80;21016;-77
2020/12/01 00:47:55;;;;;;;59.80;32.38;;;;;;;-4.21;78.41;99317.38;1770317;81;21008;-79
2020/12/01 00:50:24;;;;;;;53.02;30.85;;;;;;;-4.22;78.42;99315.65;1697276;84;21541;-79
2020/12/01 00:52:53;;;;;;;51.25;29.72;;;;;;;-4.25;78.48;99319.56;1770549;81;20976;-78
2020/12/01 00:55:22;;;;;;;64.95;34.80;;;;;;;-4.26;78.48;99326.98;1696979;84;21613;-78
2020/12/01 00:57:52;;;;;;;58.95;32.83;;;;;;;-4.29;78.27;99318.66;1738501;81;21015;-79
2020/12/01 01:00:26;;;;;;;53.25;32.23;;;;;;;-4.31;78.19;99314.29;1789194;79;21044;-79
2020/12/01 01:03:00;;;;;;;57.08;31.85;;;;;;;-4.34;78.24;99307.72;1789478;79;20969;-78
2020/12/01 01:05:31;;;;;;;46.45;27.90;;;;;;;-4.38;78.22;99315.56;1719506;83;21039;-79
2020/12/01 01:08:00;;;;;;;49.05;29.60;;;;;;;-4.40;78.14;99313.38;1797495;79;22664;-78
2020/12/01 01:10:31;;;;;;;50.35;28.87;;;;;;;-4.42;77.96;99318.16;1719262;82;21436;-78
2020/12/01 01:13:02;;;;;;;51.55;30.97;;;;;;;-4.47;77.92;99315.51;1797788;79;21036;-79
2020/12/01 01:15:34;;;;;;;47.13;27.50;;;;;;;-4.49;77.89;99312.42;1719534;82;20988;-79
2020/12/01 01:18:06;;;;;;;35.52;24.47;;;;;;;-4.53;77.84;99316.78;1797757;79;20975;-78
2020/12/01 01:20:37;;;;;;;34.60;22.15;;;;;;;-4.56;77.86;99311.52;1719665;83;21425;-79
2020/12/01 01:23:09;;;;;;;32.63;19.85;;;;;;;-4.60;77.93;99307.14;1797928;79;20977;-80
2020/12/01 01:25:38;;;;;;;29.87;18.92;;;;;;;-4.62;77.87;99311.48;1719457;82;21012;-79
2020/12/01 01:28:06;;;;;;;25.97;17.48;;;;;;;-4.65;77.90;99306.21;1797713;79;20968;-78
2020/12/01 01:30:38;;;;;;;26.77;16.97;;;;;;;-4.65;77.89;99307.11;1797871;79;20992;-78
2020/12/01 01:33:08;;;;;;;28.17;19.30;;;;;;;-4.67;77.91;99305.34;1719358;83;21387;-78
2020/12/01 01:35:39;;;;;;;30.10;18.20;;;;;;;-4.67;77.75;99300.09;1797755;79;20980;-77
2020/12/01 01:38:09;;;;;;;30.30;18.67;;;;;;;-4.72;77.60;99299.62;1719543;83;21051;-78
2020/12/01 01:40:39;;;;;;;26.95;16.82;;;;;;;-4.74;77.63;99288.70;1797552;79;20996;-78
2020/12/01 01:43:13;;;;;;;35.58;19.15;;;;;;;-4.75;77.73;99288.24;1719638;82;20965;-78
2020/12/01 01:45:48;;;;;;;30.67;19.10;;;;;;;-4.77;77.75;99289.55;1798114;79;22141;-78
2020/12/01 01:48:24;;;;;;;36.40;19.60;;;;;;;-4.78;77.83;99291.71;1797552;79;21008;-77
2020/12/01 01:51:10;;;;;;;31.15;17.80;;;;;;;-4.80;77.87;99285.59;1797164;79;21051;-77
2020/12/01 01:53:42;;;;;;;26.95;17.27;;;;;;;-4.83;77.89;99277.70;1719378;83;21485;-77
2020/12/01 01:56:14;;;;;;;31.05;17.73;;;;;;;-4.83;77.71;99279.02;1797559;79;20996;-77
2020/12/01 01:58:43;;;;;;;34.30;19.48;;;;;;;-4.86;77.45;99277.69;1798009;79;21337;-78
2020/12/01 02:01:19;;;;;;;27.65;17.65;;;;;;;-4.89;77.27;99284.22;1736473;82;21037;-79
2020/12/01 02:03:52;;;;;;;31.77;20.15;;;;;;;-4.92;77.24;99282.88;1769261;81;20999;-79
2020/12/01 02:06:32;;;;;;;28.00;19.00;;;;;;;-4.95;77.09;99288.09;1738790;82;20981;-79
2020/12/01 02:09:10;;;;;;;29.85;19.70;;;;;;;-4.98;77.02;99279.80;1738566;82;21291;-77
2020/12/01 02:11:43;;;;;;;32.98;20.92;;;;;;;-5.00;76.90;99284.58;1726019;82;21385;-79
2020/12/01 02:14:24;;;;;;;33.13;22.35;;;;;;;-5.03;76.86;99294.63;1738638;82;21019;-78
2020/12/01 02:16:59;;;;;;;36.73;22.15;;;;;;;-5.06;76.90;99284.53;1760383;81;21028;-78
2020/12/01 02:19:29;;;;;;;;;;;;;;;-5.10;76.98;99284.50;1739494;82;21119;-78
2020/12/01 02:21:58;;;;;;;36.13;21.65;;;;;;;-5.14;77.03;99278.81;1730861;82;20186;-78
2020/12/01 02:24:38;;;;;;;30.60;19.17;;;;;;;-5.16;77.02;99286.20;1747930;82;21030;-77
2020/12/01 02:27:05;;;;;;;35.35;21.82;;;;;;;-5.20;77.05;99284.41;1805221;79;20956;-77
2020/12/01 02:29:35;;;;;;;32.10;19.67;;;;;;;-5.22;77.01;99289.64;1805355;79;21007;-77
2020/12/01 02:32:03;;;;;;;34.00;22.20;;;;;;;-5.24;77.10;99287.45;1804830;79;21000;-78
2020/12/01 02:34:37;;;;;;;35.38;20.30;;;;;;;-5.25;77.15;99286.98;1738604;82;21009;-77
2020/12/01 02:37:09;;;;;;;32.75;19.57;;;;;;;-5.26;77.24;99283.50;1769267;81;21370;-77
2020/12/01 02:39:37;;;;;;;33.80;20.75;;;;;;;-5.27;77.28;99288.32;1738651;82;20996;-77
2020/12/01 02:42:09;;;;;;;37.10;22.52;;;;;;;-5.27;77.40;99291.34;1735229;82;21032;-77
2020/12/01 02:44:38;;;;;;;35.88;21.25;;;;;;;-5.28;77.24;99285.24;1739046;82;21540;-78
2020/12/01 02:47:06;;;;;;;38.02;23.25;;;;;;;-5.29;77.04;99286.54;1769246;81;20989;-78
2020/12/01 02:49:34;;;;;;;42.13;23.50;;;;;;;-5.28;76.90;99289.61;1739006;82;21200;-76
2020/12/01 02:52:03;;;;;;;43.08;25.17;;;;;;;-5.30;76.75;99292.63;1738887;81;21460;-79
2020/12/01 02:54:32;;;;;;;42.62;25.62;;;;;;;-5.31;76.56;99290.45;1769247;81;21033;-76
2020/12/01 02:57:01;;;;;;;40.67;23.38;;;;;;;-5.34;76.43;99282.57;1740495;82;21008;-76
2020/12/01 02:59:30;;;;;;;37.00;22.70;;;;;;;-5.36;76.24;99283.41;1738741;81;21537;-77
2020/12/01 03:01:57;;;;;;;39.30;23.83;;;;;;;-5.39;76.17;99283.38;1769269;81;21260;-77
2020/12/01 03:04:25;;;;;;;44.18;24.87;;;;;;;-5.41;76.14;99287.73;1738801;82;21008;-76
2020/12/01 03:06:53;;;;;;;37.23;24.30;;;;;;;-5.45;76.32;99283.78;1738893;82;21016;-76
2020/12/01 03:09:21;;;;;;;45.30;25.40;;;;;;;-5.47;76.37;99290.75;1769159;81;21039;-78
2020/12/01 03:11:49;;;;;;;49.75;25.72;;;;;;;-5.47;76.44;99284.61;1738985;82;21437;-76
2020/12/01 03:14:18;;;;;;;54.23;29.35;;;;;;;-5.50;76.45;99280.66;1735168;82;21377;-77
2020/12/01 03:16:50;;;;;;;52.75;28.15;;;;;;;-5.52;76.45;99288.53;1738164;82;21027;-76
2020/12/01 03:19:19;;;;;;;52.20;27.75;;;;;;;-5.52;76.32;99292.45;1769369;81;21020;-76
2020/12/01 03:21:46;;;;;;;54.73;27.50;;;;;;;-5.54;76.34;99282.38;1738795;82;20988;-76
2020/12/01 03:24:14;;;;;;;48.02;27.82;;;;;;;-5.54;76.35;99286.75;1738648;82;21031;-76
2020/12/01 03:26:43;;;;;;;52.62;27.48;;;;;;;-5.57;76.26;99281.05;1769367;81;21140;-77
2020/12/01 03:29:11;;;;;;;50.98;29.37;;;;;;;-5.57;76.26;99289.34;1738827;82;21023;-77
2020/12/01 03:31:39;;;;;;;48.95;29.40;;;;;;;-5.58;76.06;99282.33;1738774;82;21581;-77
2020/12/01 03:34:11;;;;;;;56.77;32.17;;;;;;;-5.61;75.95;99284.52;1769275;81;21001;-77
2020/12/01 03:36:39;;;;;;;53.80;28.50;;;;;;;-5.62;76.07;99284.05;1738901;82;21008;-76
2020/12/01 03:39:08;;;;;;;50.15;27.67;;;;;;;-5.62;76.11;99280.12;1738723;82;21244;-76
2020/12/01 03:41:38;;;;;;;48.03;27.20;;;;;;;-5.64;75.98;99276.63;1769343;81;20988;-77
2020/12/01 03:44:07;;;;;;;50.73;28.02;;;;;;;-5.65;75.74;99281.41;1738860;82;20949;-76
2020/12/01 03:46:36;;;;;;;45.35;25.88;;;;;;;-5.64;75.66;99281.86;1738687;82;21035;-76
2020/12/01 03:49:04;;;;;;;45.85;25.62;;;;;;;-5.65;75.79;99284.02;1769388;81;20983;-76
2020/12/01 03:51:34;;;;;;;43.33;26.12;;;;;;;-5.65;75.89;99289.26;1738838;82;20992;-76
2020/12/01 03:54:01;;;;;;;42.95;24.02;;;;;;;-5.65;76.00;99285.33;1738594;82;21657;-78
2020/12/01 03:56:31;;;;;;;40.73;24.27;;;;;;;-5.64;75.99;99285.79;1769275;81;21731;-77
2020/12/01 03:58:59;;;;;;;43.42;24.90;;;;;;;-5.63;75.91;99284.50;1769476;80;21105;-77
2020/12/01 04:01:27;;;;;;;46.05;25.43;;;;;;;-5.61;75.88;99275.34;1775671;80;20937;-76
2020/12/01 04:03:55;;;;;;;42.90;25.85;;;;;;;-5.59;75.80;99273.62;1816376;79;22306;-78
2020/12/01 04:06:23;;;;;;;41.53;22.87;;;;;;;-5.59;75.99;99274.92;1749367;82;20997;-77
2020/12/01 04:08:53;;;;;;;40.38;23.22;;;;;;;-5.57;76.11;99270.57;1780025;80;21015;-76
2020/12/01 04:11:24;;;;;;;38.92;20.82;;;;;;;-5.55;76.07;99272.80;1777088;79;21018;-77
2020/12/01 04:13:54;;;;;;;36.55;21.97;;;;;;;-5.54;76.04;99265.36;1816412;79;20940;-76
2020/12/01 04:16:22;;;;;;;35.88;21.95;;;;;;;-5.53;75.92;99269.75;1816105;79;21806;-77
2020/12/01 04:18:50;;;;;;;32.53;20.27;;;;;;;-5.52;75.83;99271.52;1749371;82;21446;-77
2020/12/01 04:21:18;;;;;;;38.25;21.17;;;;;;;-5.52;75.82;99267.59;1780314;80;20999;-77
2020/12/01 04:23:51;;;;;;;40.10;23.22;;;;;;;-5.52;75.75;99270.20;1816159;79;21614;-77
2020/12/01 04:26:16;;;;;;;42.00;24.63;;;;;;;-5.53;75.53;99273.67;1780169;80;20973;-77
2020/12/01 04:28:43;;;;;;;34.33;23.27;;;;;;;-5.53;75.49;99268.44;1816277;79;21650;-76
2020/12/01 04:31:10;;;;;;;36.73;21.90;;;;;;;-5.53;75.72;99264.95;1816457;79;21600;-75
2020/12/01 04:33:39;;;;;;;35.70;21.33;;;;;;;-5.52;75.73;99264.97;1816633;79;21015;-76
2020/12/01 04:36:09;;;;;;;38.50;22.87;;;;;;;-5.52;75.70;99268.89;1816171;79;20999;-75
2020/12/01 04:38:36;;;;;;;38.65;22.48;;;;;;;-5.53;75.73;99267.13;1749088;82;21010;-75
2020/12/01 04:41:05;;;;;;;40.20;22.25;;;;;;;-5.54;75.60;99260.13;1780005;80;21806;-76
2020/12/01 04:43:36;;;;;;;36.30;22.42;;;;;;;-5.54;75.62;99257.52;1815974;79;20972;-77
2020/12/01 04:46:05;;;;;;;39.25;23.85;;;;;;;-5.55;75.56;99259.70;1749116;82;21001;-76
2020/12/01 04:48:48;;;;;;;46.37;24.32;;;;;;;-5.56;75.54;99260.56;1773037;80;21015;-76
2020/12/01 04:51:40;;;;;;;39.92;22.75;;;;;;;-5.58;75.50;99264.91;1816337;79;20983;-77
2020/12/01 04:54:50;;;;;;;39.90;23.57;;;;;;;-5.60;75.40;99264.00;1816278;79;22104;-76
2020/12/01 04:57:53;;;;;;;42.15;22.00;;;;;;;-5.64;75.27;99262.23;1749240;82;20957;-77
2020/12/01 05:00:44;;;;;;;37.78;20.57;;;;;;;-5.69;75.23;99270.45;1779836;80;21003;-77
2020/12/01 05:03:54;;;;;;;33.90;19.85;;;;;;;-5.73;75.26;99260.83;1740207;82;21241;-76
2020/12/01 05:06:48;;;;;;;28.98;18.30;;;;;;;-5.78;75.28;99263.84;1804968;79;21036;-77
2020/12/01 05:09:18;;;;;;;31.85;18.67;;;;;;;-5.83;75.41;99263.35;1803917;79;21890;-76
2020/12/01 05:11:57;;;;;;;32.30;19.42;;;;;;;-5.86;75.29;99258.53;1805188;79;21565;-77
2020/12/01 05:14:36;;;;;;;32.50;19.98;;;;;;;-5.89;75.40;99260.67;1738642;82;21021;-76
2020/12/01 05:17:49;;;;;;;41.65;24.00;;;;;;;-5.91;75.38;99266.33;1769339;81;21474;-77
2020/12/01 05:20:16;;;;;;;39.08;21.85;;;;;;;-5.93;75.46;99257.56;1760484;80;21004;-76
2020/12/01 05:22:51;;;;;;;42.95;22.52;;;;;;;-5.96;75.48;99244.92;1769581;80;21797;-76
2020/12/01 05:25:30;;;;;;;34.67;20.65;;;;;;;-5.98;75.48;99255.36;1769433;81;21000;-77
2020/12/01 05:28:10;;;;;;;46.83;24.77;;;;;;;-5.99;75.57;99252.33;1769865;81;21608;-77
2020/12/01 05:30:39;;;;;;;40.00;21.73;;;;;;;-6.00;75.71;99256.66;1769782;81;20977;-77
2020/12/01 05:33:27;;;;;;;37.28;20.82;;;;;;;-6.00;75.77;99258.41;1770025;80;20995;-76
2020/12/01 05:36:31;;;;;;;39.80;23.30;;;;;;;-6.02;75.75;99257.52;1767832;81;21379;-76
2020/12/01 05:39:13;;;;;;;37.15;21.23;;;;;;;-6.02;75.80;99258.39;1769750;81;20993;-76
2020/12/01 05:41:42;;;;;;;37.17;22.17;;;;;;;-6.06;75.89;99251.36;1769861;81;21102;-76
2020/12/01 05:44:25;;;;;;;34.55;19.98;;;;;;;-6.07;75.89;99255.27;1769541;81;21020;-77
2020/12/01 05:47:12;;;;;;;34.50;18.98;;;;;;;-6.08;75.95;99257.45;1769982;81;20956;-76
2020/12/01 05:49:48;;;;;;;32.00;19.17;;;;;;;-6.10;76.02;99259.16;1750108;81;21350;-76
2020/12/01 05:52:21;;;;;;;29.67;18.07;;;;;;;-6.12;76.13;99255.65;1748501;81;21020;-77
2020/12/01 05:55:15;;;;;;;32.63;17.92;;;;;;;-6.12;76.15;99268.73;1769874;81;21549;-76
2020/12/01 05:57:43;;;;;;;26.77;17.52;;;;;;;-6.13;76.08;99265.24;1769863;81;21012;-75
2020/12/01 06:00:21;;;;;;;31.82;17.75;;;;;;;-6.13;76.12;99259.11;1769718;80;21009;-76
2020/12/01 06:03:06;;;;;;;28.17;17.32;;;;;;;-6.13;76.10;99257.80;1769701;81;21936;-75
2020/12/01 06:05:38;;;;;;;30.25;17.00;;;;;;;-6.12;76.03;99264.80;1769349;81;21023;-78
2020/12/01 06:08:27;;;;;;;27.55;16.10;;;;;;;-6.12;75.89;99271.34;1769527;81;20980;-77
2020/12/01 06:11:25;;;;;;;25.30;15.65;;;;;;;-6.13;75.94;99266.96;1769703;81;20933;-77
2020/12/01 06:13:56;;;;;;;22.17;14.55;;;;;;;-6.13;75.85;99274.80;1769682;81;21004;-77
2020/12/01 06:16:35;;;;;;;29.57;15.70;;;;;;;-6.12;75.96;99280.49;1769749;81;21371;-76
2020/12/01 06:19:30;;;;;;;34.45;19.73;;;;;;;-6.12;75.97;99287.90;1769678;81;21028;-76
2020/12/01 06:22:21;;;;;;;32.78;20.43;;;;;;;-6.11;75.75;99291.41;1769674;80;20973;-76
2020/12/01 06:25:17;;;;;;;34.53;21.50;;;;;;;-6.12;75.71;99294.44;1769703;81;20992;-78
2020/12/01 06:28:20;;;;;;;42.58;23.15;;;;;;;-6.11;75.92;99301.88;1769711;81;21545;-75
2020/12/01 06:31:33;;;;;;;38.78;22.30;;;;;;;-6.12;75.90;99297.50;1769800;80;21372;-76
2020/12/01 06:34:32;;;;;;;38.75;22.58;;;;;;;-6.08;75.88;99302.78;1739271;81;21036;-78
2020/12/01 06:37:42;;;;;;;33.55;19.02;;;;;;;-6.08;75.88;99302.78;1769579;81;21028;-77
2020/12/01 06:40:30;;;;;;;33.67;20.10;;;;;;;-6.07;76.04;99312.80;1769489;80;21004;-77
2020/12/01 06:43:06;;;;;;;43.50;24.72;;;;;;;-6.05;76.07;99303.27;1769888;81;20984;-76
2020/12/01 06:45:42;;;;;;;49.93;27.05;;;;;;;-6.00;75.86;99310.72;1765053;81;21404;-77
2020/12/01 06:48:24;;;;;;;47.60;28.20;;;;;;;-5.96;75.58;99306.40;1769610;81;20969;-78
2020/12/01 06:50:57;;;;;;;51.00;27.42;;;;;;;-5.93;75.42;99315.11;1769393;81;21044;-76
2020/12/01 06:53:32;;;;;;;55.23;27.22;;;;;;;-5.91;75.31;99302.95;1769713;81;21048;-77
2020/12/01 06:56:14;;;;;;;59.85;26.85;;;;;;;-5.87;75.09;99299.93;1769843;81;21008;-77
2020/12/01 06:58:46;;;;;;;53.58;26.65;;;;;;;-5.84;75.02;99303.89;1769655;81;21366;-77
2020/12/01 07:01:32;;;;;;;43.17;25.52;;;;;;;-5.81;74.92;99299.56;1770434;80;21005;-77
2020/12/01 07:04:14;;;;;;;42.38;22.90;;;;;;;-5.77;74.89;99305.73;1816246;79;21437;-75
2020/12/01 07:06:51;;;;;;;42.93;23.52;;;;;;;-5.72;74.74;99306.64;1749399;82;21056;-76
2020/12/01 07:09:29;;;;;;;33.10;18.27;;;;;;;-5.66;74.68;99315.87;1780345;80;20966;-75
2020/12/01 07:12:09;;;;;;;36.38;19.42;;;;;;;-5.58;74.58;99313.75;1816334;79;21192;-76
2020/12/01 07:15:06;;;;;;;39.38;20.00;;;;;;;-5.53;74.47;99320.80;1749443;82;21168;-76
2020/12/01 07:17:51;;;;;;;53.25;30.40;;;;;;;-5.48;74.20;99307.31;1779730;80;21052;-76
2020/12/01 07:20:43;;;;;;;52.20;26.50;;;;;;;-5.45;74.09;99300.80;1814944;79;20983;-73
2020/12/01 07:23:27;;;;;;;60.23;29.90;;;;;;;-5.43;74.14;99307.80;1781289;78;21007;-73
2020/12/01 07:26:22;;;;;;;77.10;35.33;;;;;;;-5.43;74.27;99300.81;1731561;82;22358;-74
2020/12/01 07:29:37;;;;;;;85.95;36.45;;;;;;;-5.41;74.66;99300.83;1754619;81;21572;-73
2020/12/01 07:32:23;;;;;;;72.40;32.65;;;;;;;-5.36;74.92;99302.64;1754663;81;21058;-74
2020/12/01 07:41:31;;;;;;;41.10;23.15;;;;;;;-5.10;75.12;99296.29;1724886;83;21100;-71
2020/12/01 07:44:23;;;;;;;40.73;23.50;;;;;;;-4.98;75.48;99292.00;1724479;83;20977;-71
2020/12/01 07:47:28;;;;;;;36.93;22.50;;;;;;;-4.86;75.52;99287.30;1724915;83;21005;-70
2020/12/01 07:50:20;;;;;;;35.98;21.15;;;;;;;-4.73;75.50;99286.09;1724537;83;21045;-72
2020/12/01 07:53:12;;;;;;;44.10;24.57;;;;;;;-4.55;75.43;99288.38;1724631;83;21598;-79
2020/12/01 07:56:03;;;;;;;40.10;23.95;;;;;;;-4.43;75.37;99288.45;1724579;83;21342;-74
2020/12/01 07:58:40;;;;;;;44.33;25.32;;;;;;;-4.33;75.34;99289.36;1698248;83;20973;-72
2020/12/01 08:01:17;;;;;;;39.53;22.95;;;;;;;-4.23;75.15;99290.27;1724970;83;20977;-71
2020/12/01 08:04:27;;;;;;;35.30;22.40;;;;;;;-4.19;75.14;99292.05;1724623;83;20958;-73
2020/12/01 08:07:06;;;;;;;36.45;22.10;;;;;;;-4.12;75.00;99292.50;1724936;81;20990;-68
2020/12/01 08:10:04;;;;;;;37.95;22.67;;;;;;;-4.06;74.94;99297.78;1724585;83;22289;-68
2020/12/01 08:12:51;;;;;;;41.13;23.95;;;;;;;-4.00;74.86;99301.74;1724400;83;21559;-68
2020/12/01 08:15:34;;;;;;;38.63;24.23;;;;;;;-3.91;74.85;99297.39;1724339;83;21415;-71
2020/12/01 08:18:22;;;;;;;75.25;40.25;;;;;;;-3.85;74.90;99294.38;1724731;83;21037;-69
2020/12/01 08:21:25;;;;;;;61.95;36.20;;;;;;;-3.76;75.14;99294.81;1724649;83;21582;-68
2020/12/01 08:24:14;;;;;;;44.40;25.97;;;;;;;-3.65;75.02;99300.97;1724064;81;21124;-69
2020/12/01 08:27:14;;;;;;;38.38;21.68;;;;;;;-3.53;75.06;99297.92;1702483;84;21031;-68
2020/12/01 08:30:07;;;;;;;30.77;20.72;;;;;;;-3.41;75.02;99296.63;1685760;82;21489;-69
2020/12/01 08:32:46;;;;;;;37.73;22.62;;;;;;;-3.28;74.82;99293.58;1706948;84;21019;-70
2020/12/01 08:35:40;;;;;;;;;;;;;;;-3.16;74.58;99292.72;1720174;82;21169;-69
2020/12/01 08:38:28;;;;;;;25.62;16.73;;;;;;;-3.05;74.16;99293.59;1707329;81;21382;-70
2020/12/01 08:50:37;;;;;;;23.85;15.48;;;;;;;-2.80;73.51;99300.16;1706749;84;20980;-73
2020/12/01 08:53:18;;;;;;;26.07;16.20;;;;;;;-2.77;73.42;99297.53;1706525;84;22492;-72
2020/12/01 09:02:12;;;;;;;29.25;18.92;;;;;;;-2.71;74.04;99300.16;1707160;81;21031;-72
2020/12/01 09:04:47;;;;;;;34.05;19.80;;;;;;;-2.69;74.19;99288.32;1718066;82;21035;-74
2020/12/01 09:07:59;;;;;;;31.80;20.52;;;;;;;-2.65;74.47;99281.73;1707022;81;21481;-74
2020/12/01 09:10:48;;;;;;;29.20;20.30;;;;;;;-2.62;74.69;99280.83;1706299;81;21093;-73
2020/12/01 09:13:31;;;;;;;35.10;21.12;;;;;;;-2.58;74.90;99270.75;1724194;83;21030;-79
2020/12/01 09:22:30;;;;;;;33.63;21.17;;;;;;;-2.45;75.49;99265.02;1734756;82;21367;-73
2020/12/01 09:25:24;;;;;;;34.73;22.17;;;;;;;-2.41;75.85;99262.83;1731364;82;21039;-64
2020/12/01 09:28:01;;;;;;;30.45;20.88;;;;;;;-2.40;76.15;99263.23;1713801;82;21039;-70
2020/12/01 09:30:43;;;;;;;32.50;21.15;;;;;;;-2.40;76.31;99258.88;1734793;82;21665;-67
2020/12/01 09:33:22;;;;;;;28.50;19.52;;;;;;;-2.34;77.68;99255.33;1734506;82;20999;-67
2020/12/01 09:36:02;;;;;;;34.00;17.60;;;;;;;-2.28;76.75;99256.63;1734846;82;21198;-67
2020/12/01 09:38:37;;;;;;;31.42;21.37;;;;;;;-2.23;76.52;99242.13;1732959;82;20987;-74
2020/12/01 09:41:25;;;;;;;37.15;23.27;;;;;;;-2.16;76.33;99248.23;1734313;82;21043;-63
2020/12/01 09:44:05;;;;;;;37.98;26.17;;;;;;;-2.10;76.20;99240.31;1734694;82;21058;-70
2020/12/01 09:46:49;;;;;;;34.63;21.80;;;;;;;-2.06;76.88;99238.11;1734780;82;21011;-69
2020/12/01 09:49:19;;;;;;;35.60;23.15;;;;;;;-2.00;76.17;99231.50;1734387;82;21615;-69
2020/12/01 09:52:03;;;;;;;35.48;22.87;;;;;;;-1.94;75.89;99221.36;1734551;82;21541;-70
2020/12/01 09:54:41;;;;;;;34.13;22.20;;;;;;;-1.91;75.64;99221.34;1734619;82;20980;-70
2020/12/01 09:57:31;;;;;;;34.95;22.82;;;;;;;-1.91;75.40;99230.11;1734449;82;20995;-69
2020/12/01 10:07:31;;;;;;;34.50;22.70;;;;;;;-1.85;75.18;99217.36;1734518;82;21022;-70
2020/12/01 10:08:55;;;;;;;36.33;24.37;;;;;;;-1.80;75.09;99227.88;1734048;82;21023;-70
2020/12/01 10:27:18;;;;;;;36.20;22.98;;;;;;;-1.63;74.79;99210.19;1734448;82;20975;-71
2020/12/01 10:37:37;;;;;;;33.10;22.17;;;;;;;-1.53;74.31;99209.25;1732177;82;20995;-73
2020/12/01 10:40:06;;;;;;;40.03;23.65;;;;;;;-1.48;74.32;99201.31;1734433;82;21555;-73
2020/12/01 10:42:33;;;;;;;34.90;23.12;;;;;;;-1.43;74.16;99194.23;1734694;82;20987;-74
2020/12/01 10:45:03;;;;;;;37.90;22.65;;;;;;;-1.38;74.23;99198.16;1734735;82;22119;-74
2020/12/01 10:47:31;;;;;;;35.38;21.90;;;;;;;-1.35;74.20;99202.95;1734301;82;21003;-71
2020/12/01 10:49:58;;;;;;;30.95;21.25;;;;;;;-1.30;74.04;99206.86;1734649;82;21003;-72
2020/12/01 10:52:26;;;;;;;37.73;24.72;;;;;;;-1.28;73.62;99199.81;1734706;82;20995;-72
2020/12/01 10:54:53;;;;;;;31.45;22.02;;;;;;;-1.23;73.74;99201.98;1734534;82;20948;-71
2020/12/01 10:57:20;;;;;;;26.05;19.57;;;;;;;-1.23;73.82;99195.39;1734641;82;21195;-72
2020/12/01 11:19:31;;;;;;;28.52;20.25;;;;;;;-0.66;71.99;99184.69;1789183;79;28421;-68
2020/12/01 11:22:01;;;;;;;42.25;25.70;;;;;;;-0.63;71.46;99180.70;1718102;83;20936;-67
2020/12/01 11:24:29;;;;;;;21.97;18.05;;;;;;;-0.63;71.46;99176.73;1747989;82;21476;-70
2020/12/01 11:26:57;;;;;;;21.42;17.42;;;;;;;-0.64;70.72;99175.02;1747276;82;21003;-70
2020/12/01 11:29:27;;;;;;;23.25;17.87;;;;;;;-0.65;70.46;99175.44;1727015;82;21600;-71
2020/12/01 11:31:55;;;;;;;25.75;19.82;;;;;;;-0.66;70.69;99177.67;1726757;83;20921;-70
2020/12/01 11:34:22;;;;;;;30.23;19.67;;;;;;;-0.68;71.02;99175.47;1726931;82;20944;-72
2020/12/01 11:36:50;;;;;;;25.08;19.12;;;;;;;-0.70;71.16;99179.03;1734997;82;22215;-71
2020/12/01 11:39:18;;;;;;;24.10;19.55;;;;;;;-0.72;71.01;99170.27;1726857;83;21008;-70
2020/12/01 11:41:46;;;;;;;28.57;18.90;;;;;;;-0.74;70.85;99163.23;1726369;83;21023;-72
2020/12/01 11:44:15;;;;;;;25.52;19.20;;;;;;;-0.76;70.58;99166.77;1734490;82;20984;-72
2020/12/01 11:46:42;;;;;;;24.67;17.32;;;;;;;-0.78;70.77;99168.11;1726514;83;21469;-71
2020/12/01 11:49:10;;;;;;;25.05;18.40;;;;;;;-0.83;70.56;99163.34;1726302;83;21812;-72
2020/12/01 11:51:40;;;;;;;28.52;20.65;;;;;;;-0.87;70.86;99160.30;1734240;82;21004;-71
2020/12/01 11:54:10;;;;;;;26.23;19.02;;;;;;;-0.89;71.05;99156.81;1726411;83;21020;-71
2020/12/01 11:56:38;;;;;;;26.23;18.85;;;;;;;-0.91;71.20;99161.23;1726323;83;21449;-73
2020/12/01 11:59:06;;;;;;;21.93;17.92;;;;;;;-0.95;71.16;99151.60;1734499;82;21574;-72
2020/12/01 12:01:34;;;;;;;24.80;18.35;;;;;;;-0.97;71.34;99142.84;1726283;83;21818;-72
2020/12/01 12:04:03;;;;;;;24.25;17.42;;;;;;;-1.00;71.51;99146.38;1726358;83;20976;-72
2020/12/01 12:06:31;;;;;;;20.88;17.52;;;;;;;-1.03;71.67;99144.22;1734351;82;20960;-71
2020/12/01 12:08:58;;;;;;;24.70;17.37;;;;;;;-1.05;71.86;99139.42;1726297;83;21485;-71
2020/12/01 12:11:26;;;;;;;36.28;23.52;;;;;;;-1.07;72.30;99139.44;1726387;83;21036;-77
2020/12/01 12:13:55;;;;;;;27.73;18.87;;;;;;;-1.08;72.46;99138.13;1734486;82;22172;-73
2020/12/01 12:16:37;;;;;;;22.70;16.73;;;;;;;-1.07;72.54;99137.22;1841742;78;28563;-71
2020/12/01 12:19:06;;;;;;;24.75;17.65;;;;;;;-1.12;72.53;99142.12;1817109;79;20972;-72
2020/12/01 12:21:33;;;;;;;23.38;18.35;;;;;;;-1.13;72.41;99142.13;1816965;79;21527;-71
2020/12/01 12:24:01;;;;;;;25.40;19.70;;;;;;;-1.15;72.49;99141.25;1817515;79;20876;-70
2020/12/01 12:26:30;;;;;;;25.05;18.17;;;;;;;-1.18;72.36;99139.55;1817658;79;21323;-68
2020/12/01 12:28:59;;;;;;;24.20;18.02;;;;;;;-1.19;72.40;99140.42;1817593;78;20968;-70
2020/12/01 12:31:28;;;;;;;26.20;18.65;;;;;;;-1.20;72.51;99143.97;1817622;79;20908;-70
2020/12/01 12:33:56;;;;;;;19.55;15.15;;;;;;;-1.23;72.55;99140.46;1817647;78;21348;-68
2020/12/01 12:36:23;;;;;;;23.90;17.65;;;;;;;-1.25;72.43;99147.52;1817493;79;21011;-69
2020/12/01 12:38:51;;;;;;;23.47;17.60;;;;;;;-1.28;72.48;99140.50;1817617;79;20916;-70
2020/12/01 12:41:19;;;;;;;21.82;16.85;;;;;;;-1.29;72.67;99139.64;1817549;79;20921;-70
2020/12/01 12:43:46;;;;;;;25.82;18.77;;;;;;;-1.32;72.74;99139.67;1817713;79;20968;-70
2020/12/01 12:46:13;;;;;;;29.20;19.20;;;;;;;-1.33;72.92;99138.36;1817573;79;21294;-70
2020/12/01 12:48:42;;;;;;;27.45;21.10;;;;;;;-1.34;73.04;99135.29;1817623;79;20888;-70
2020/12/01 12:51:11;;;;;;;26.23;19.07;;;;;;;-1.36;73.13;99141.03;1817050;79;20915;-70
2020/12/01 12:53:38;;;;;;;28.57;19.25;;;;;;;-1.36;73.22;99131.80;1817572;79;20908;-68
2020/12/01 12:56:06;;;;;;;24.20;19.00;;;;;;;-1.37;73.33;99141.48;1817585;79;21412;-68
2020/12/01 12:58:33;;;;;;;27.60;18.75;;;;;;;-1.36;73.43;99133.13;1817579;78;21361;-65
2020/12/01 13:01:01;;;;;;;31.37;20.90;;;;;;;-1.36;73.44;99137.08;1817502;79;20935;-70
2020/12/01 13:03:29;;;;;;;26.73;18.67;;;;;;;-1.37;73.56;99140.59;1817648;79;21353;-70
2020/12/01 13:05:56;;;;;;;25.48;18.80;;;;;;;-1.37;73.54;99140.59;1817526;79;20971;-70
2020/12/01 13:08:23;;;;;;;24.72;19.48;;;;;;;-1.37;73.53;99135.31;1817588;79;20967;-72
2020/12/01 13:10:51;;;;;;;27.90;19.40;;;;;;;-1.36;73.65;99142.34;1817515;78;21338;-69
2020/12/01 13:13:18;;;;;;;27.32;19.70;;;;;;;-1.37;73.66;99140.59;1817553;79;20928;-70